sensor_id;sensor_type;location;lat;lon;timestamp;pressure;altitude;pressure_sealevel;temperature;humidity
24486;BME280;13449;49.374;8.584;2023-06-22T00:01:29;100439.25;;;22.27;71.38
24486;BME280;13449;49.374;8.584;2023-06-22T00:03:55;100437.94;;;22.23;72.38
24486;BME280;13449;49.374;8.584;2023-06-22T00:06:22;100443.59;;;22.28;71.57
24486;BME280;13449;49.374;8.584;2023-06-22T00:08:53;100453.56;;;22.13;73.69
24486;BME280;13449;49.374;8.584;2023-06-22T00:11:22;100449.41;;;22.10;73.51
24486;BME280;13449;49.374;8.584;2023-06-22T00:13:49;100458.13;;;21.98;73.54
24486;BME280;13449;49.374;8.584;2023-06-22T00:16:19;100459.31;;;22.10;72.74
24486;BME280;13449;49.374;8.584;2023-06-22T00:18:46;100458.28;;;22.11;71.88
24486;BME280;13449;49.374;8.584;2023-06-22T00:21:13;100466.69;;;22.08;72.62
24486;BME280;13449;49.374;8.584;2023-06-22T00:23:40;100456.72;;;22.02;72.54
24486;BME280;13449;49.374;8.584;2023-06-22T00:26:07;100463.56;;;22.04;72.64
24486;BME280;13449;49.374;8.584;2023-06-22T00:28:34;100476.53;;;22.01;72.52
24486;BME280;13449;49.374;8.584;2023-06-22T00:31:00;100479.28;;;22.07;71.37
24486;BME280;13449;49.374;8.584;2023-06-22T00:33:27;100488.16;;;22.08;72.20
24486;BME280;13449;49.374;8.584;2023-06-22T00:35:54;100504.25;;;22.08;72.47
24486;BME280;13449;49.374;8.584;2023-06-22T00:38:23;100524.88;;;22.07;72.15
24486;BME280;13449;49.374;8.584;2023-06-22T00:40:49;100564.94;;;22.09;72.07
24486;BME280;13449;49.374;8.584;2023-06-22T00:43:16;100645.50;;;22.16;73.10
24486;BME280;13449;49.374;8.584;2023-06-22T00:45:42;100713.16;;;22.11;74.60
24486;BME280;13449;49.374;8.584;2023-06-22T00:48:09;100770.50;;;22.10;74.77
24486;BME280;13449;49.374;8.584;2023-06-22T00:50:36;100779.94;;;22.06;74.96
24486;BME280;13449;49.374;8.584;2023-06-22T00:53:07;100762.50;;;22.02;74.50
24486;BME280;13449;49.374;8.584;2023-06-22T00:55:41;100706.81;;;22.04;74.55
24486;BME280;13449;49.374;8.584;2023-06-22T00:58:21;100609.81;;;22.00;76.85
24486;BME280;13449;49.374;8.584;2023-06-22T01:00:51;100456.66;;;21.95;77.65
24486;BME280;13449;49.374;8.584;2023-06-22T01:03:23;100421.69;;;21.82;78.38
24486;BME280;13449;49.374;8.584;2023-06-22T01:05:49;100439.09;;;21.71;80.12
24486;BME280;13449;49.374;8.584;2023-06-22T01:08:34;100428.22;;;21.58;80.98
24486;BME280;13449;49.374;8.584;2023-06-22T01:11:39;100397.06;;;21.36;81.85
24486;BME280;13449;49.374;8.584;2023-06-22T01:14:24;100413.72;;;21.16;82.96
24486;BME280;13449;49.374;8.584;2023-06-22T01:16:57;100477.06;;;21.09;83.49
24486;BME280;13449;49.374;8.584;2023-06-22T01:19:43;100538.28;;;20.98;84.87
24486;BME280;13449;49.374;8.584;2023-06-22T01:22:13;100576.41;;;20.85;86.03
24486;BME280;13449;49.374;8.584;2023-06-22T01:24:55;100580.72;;;20.71;87.35
24486;BME280;13449;49.374;8.584;2023-06-22T01:27:28;100567.38;;;20.63;87.79
24486;BME280;13449;49.374;8.584;2023-06-22T01:29:59;100544.41;;;20.54;88.10
24486;BME280;13449;49.374;8.584;2023-06-22T01:32:33;100534.56;;;20.46;88.83
24486;BME280;13449;49.374;8.584;2023-06-22T01:35:03;100535.97;;;20.42;89.23
24486;BME280;13449;49.374;8.584;2023-06-22T01:37:31;100542.00;;;20.36;89.34
24486;BME280;13449;49.374;8.584;2023-06-22T01:39:59;100546.78;;;20.18;90.31
24486;BME280;13449;49.374;8.584;2023-06-22T01:42:26;100539.59;;;20.18;90.00
24486;BME280;13449;49.374;8.584;2023-06-22T01:44:56;100544.19;;;20.10;90.78
24486;BME280;13449;49.374;8.584;2023-06-22T01:47:24;100536.34;;;20.08;90.73
24486;BME280;13449;49.374;8.584;2023-06-22T01:49:51;100536.84;;;20.03;90.59
24486;BME280;13449;49.374;8.584;2023-06-22T01:52:18;100518.50;;;20.00;91.39
24486;BME280;13449;49.374;8.584;2023-06-22T01:54:48;100508.53;;;19.94;89.04
24486;BME280;13449;49.374;8.584;2023-06-22T01:57:14;100507.50;;;19.95;89.75
24486;BME280;13449;49.374;8.584;2023-06-22T02:00:04;100519.22;;;19.94;89.26
24486;BME280;13449;49.374;8.584;2023-06-22T02:02:37;100518.38;;;19.94;90.36
24486;BME280;13449;49.374;8.584;2023-06-22T02:05:07;100525.41;;;19.95;90.41
24486;BME280;13449;49.374;8.584;2023-06-22T02:07:42;100517.91;;;19.90;88.41
24486;BME280;13449;49.374;8.584;2023-06-22T02:10:16;100532.41;;;19.96;89.85
24486;BME280;13449;49.374;8.584;2023-06-22T02:12:46;100531.75;;;19.94;90.75
24486;BME280;13449;49.374;8.584;2023-06-22T02:15:15;100531.94;;;19.92;91.00
24486;BME280;13449;49.374;8.584;2023-06-22T02:17:42;100519.94;;;19.88;90.49
24486;BME280;13449;49.374;8.584;2023-06-22T02:20:12;100520.25;;;19.85;90.82
24486;BME280;13449;49.374;8.584;2023-06-22T02:22:42;100523.13;;;19.84;90.77
24486;BME280;13449;49.374;8.584;2023-06-22T02:25:08;100515.28;;;19.82;90.73
24486;BME280;13449;49.374;8.584;2023-06-22T02:27:38;100514.63;;;19.80;90.58
24486;BME280;13449;49.374;8.584;2023-06-22T02:30:10;100521.06;;;19.94;90.33
24486;BME280;13449;49.374;8.584;2023-06-22T02:32:36;100519.47;;;20.08;90.98
24486;BME280;13449;49.374;8.584;2023-06-22T02:35:03;100511.13;;;20.02;90.85
24486;BME280;13449;49.374;8.584;2023-06-22T02:37:32;100511.50;;;19.99;91.09
24486;BME280;13449;49.374;8.584;2023-06-22T02:39:59;100511.13;;;20.02;91.20
24486;BME280;13449;49.374;8.584;2023-06-22T02:42:25;100501.03;;;20.13;90.83
24486;BME280;13449;49.374;8.584;2023-06-22T02:44:52;100487.19;;;20.09;90.14
24486;BME280;13449;49.374;8.584;2023-06-22T02:47:21;100489.44;;;19.97;89.70
24486;BME280;13449;49.374;8.584;2023-06-22T02:49:48;100488.81;;;19.95;89.75
24486;BME280;13449;49.374;8.584;2023-06-22T02:52:14;100497.53;;;19.89;89.71
24486;BME280;13449;49.374;8.584;2023-06-22T02:54:41;100490.56;;;19.80;90.20
24486;BME280;13449;49.374;8.584;2023-06-22T02:57:10;100493.69;;;19.92;90.71
24486;BME280;13449;49.374;8.584;2023-06-22T02:59:40;100482.97;;;19.92;90.94
24486;BME280;13449;49.374;8.584;2023-06-22T03:02:08;100476.47;;;19.86;91.08
24486;BME280;13449;49.374;8.584;2023-06-22T03:04:35;100477.22;;;19.80;90.86
24486;BME280;13449;49.374;8.584;2023-06-22T03:07:02;100478.22;;;19.79;91.10
24486;BME280;13449;49.374;8.584;2023-06-22T03:09:29;100483.44;;;19.72;90.09
24486;BME280;13449;49.374;8.584;2023-06-22T03:11:59;100483.94;;;19.68;90.90
24486;BME280;13449;49.374;8.584;2023-06-22T03:14:25;100471.59;;;19.67;91.01
24486;BME280;13449;49.374;8.584;2023-06-22T03:16:52;100464.06;;;19.70;91.11
24486;BME280;13449;49.374;8.584;2023-06-22T03:19:19;100455.56;;;19.67;91.37
24486;BME280;13449;49.374;8.584;2023-06-22T03:21:50;100454.63;;;19.60;90.33
24486;BME280;13449;49.374;8.584;2023-06-22T03:24:16;100454.91;;;19.65;91.02
24486;BME280;13449;49.374;8.584;2023-06-22T03:26:43;100446.59;;;19.60;89.85
24486;BME280;13449;49.374;8.584;2023-06-22T03:29:15;100457.94;;;19.54;91.17
24486;BME280;13449;49.374;8.584;2023-06-22T03:31:42;100455.47;;;19.52;90.11
24486;BME280;13449;49.374;8.584;2023-06-22T03:34:08;100454.56;;;19.68;91.88
24486;BME280;13449;49.374;8.584;2023-06-22T03:36:35;100460.63;;;19.62;91.01
24486;BME280;13449;49.374;8.584;2023-06-22T03:39:03;100466.31;;;19.59;91.54
24486;BME280;13449;49.374;8.584;2023-06-22T03:41:30;100454.28;;;19.55;91.40
24486;BME280;13449;49.374;8.584;2023-06-22T03:43:56;100466.31;;;19.51;91.94
24486;BME280;13449;49.374;8.584;2023-06-22T03:46:23;100461.34;;;19.48;91.83
24486;BME280;13449;49.374;8.584;2023-06-22T03:48:49;100453.50;;;19.46;91.71
24486;BME280;13449;49.374;8.584;2023-06-22T03:51:16;100455.69;;;19.42;92.39
24486;BME280;13449;49.374;8.584;2023-06-22T03:53:42;100452.66;;;19.45;92.10
24486;BME280;13449;49.374;8.584;2023-06-22T03:56:10;100454.97;;;19.49;91.59
24486;BME280;13449;49.374;8.584;2023-06-22T03:58:36;100462.34;;;19.47;90.60
24486;BME280;13449;49.374;8.584;2023-06-22T04:01:09;100453.31;;;19.48;90.80
24486;BME280;13449;49.374;8.584;2023-06-22T04:03:38;100464.97;;;19.55;91.96
24486;BME280;13449;49.374;8.584;2023-06-22T04:06:05;100468.63;;;19.54;92.40
24486;BME280;13449;49.374;8.584;2023-06-22T04:08:33;100457.94;;;19.54;91.95
24486;BME280;13449;49.374;8.584;2023-06-22T04:11:00;100456.97;;;19.55;90.66
24486;BME280;13449;49.374;8.584;2023-06-22T04:13:27;100453.13;;;19.57;90.40
24486;BME280;13449;49.374;8.584;2023-06-22T04:15:53;100463.28;;;19.62;92.18
24486;BME280;13449;49.374;8.584;2023-06-22T04:18:22;100450.88;;;19.69;92.65
24486;BME280;13449;49.374;8.584;2023-06-22T04:20:48;100442.94;;;19.61;90.62
24486;BME280;13449;49.374;8.584;2023-06-22T04:23:15;100443.41;;;19.64;90.83
24486;BME280;13449;49.374;8.584;2023-06-22T04:25:41;100434.84;;;19.69;89.12
24486;BME280;13449;49.374;8.584;2023-06-22T04:28:08;100444.84;;;19.75;91.70
24486;BME280;13449;49.374;8.584;2023-06-22T04:30:38;100441.16;;;19.76;89.84
24486;BME280;13449;49.374;8.584;2023-06-22T04:33:14;100447.91;;;19.87;92.73
24486;BME280;13449;49.374;8.584;2023-06-22T04:35:40;100436.38;;;19.86;91.40
24486;BME280;13449;49.374;8.584;2023-06-22T04:38:11;100429.03;;;19.88;91.32
24486;BME280;13449;49.374;8.584;2023-06-22T04:40:42;100433.84;;;19.93;90.89
24486;BME280;13449;49.374;8.584;2023-06-22T04:43:08;100431.28;;;19.99;90.44
24486;BME280;13449;49.374;8.584;2023-06-22T04:45:36;100436.63;;;19.99;90.46
24486;BME280;13449;49.374;8.584;2023-06-22T04:48:06;100444.22;;;20.11;90.52
24486;BME280;13449;49.374;8.584;2023-06-22T04:50:36;100427.81;;;20.14;89.40
24486;BME280;13449;49.374;8.584;2023-06-22T04:53:05;100432.47;;;20.20;90.20
24486;BME280;13449;49.374;8.584;2023-06-22T04:55:32;100424.00;;;20.31;91.13
24486;BME280;13449;49.374;8.584;2023-06-22T04:57:58;100421.63;;;20.36;90.09
24486;BME280;13449;49.374;8.584;2023-06-22T05:00:31;100419.94;;;20.35;90.06
24486;BME280;13449;49.374;8.584;2023-06-22T05:03:02;100424.22;;;20.44;91.01
24486;BME280;13449;49.374;8.584;2023-06-22T05:05:45;100423.59;;;20.57;90.73
24486;BME280;13449;49.374;8.584;2023-06-22T05:08:12;100411.13;;;20.64;88.53
24486;BME280;13449;49.374;8.584;2023-06-22T05:10:39;100421.78;;;20.72;88.10
24486;BME280;13449;49.374;8.584;2023-06-22T05:13:24;100418.53;;;20.77;87.58
24486;BME280;13449;49.374;8.584;2023-06-22T05:15:52;100412.47;;;20.83;85.66
24486;BME280;13449;49.374;8.584;2023-06-22T05:18:19;100402.28;;;20.93;86.19
24486;BME280;13449;49.374;8.584;2023-06-22T05:20:50;100413.09;;;21.00;87.93
24486;BME280;13449;49.374;8.584;2023-06-22T05:23:19;100395.97;;;21.15;82.84
24486;BME280;13449;49.374;8.584;2023-06-22T05:25:46;100398.91;;;21.20;84.52
24486;BME280;13449;49.374;8.584;2023-06-22T05:28:12;100407.59;;;21.22;85.70
24486;BME280;13449;49.374;8.584;2023-06-22T05:30:41;100400.47;;;21.30;84.70
24486;BME280;13449;49.374;8.584;2023-06-22T05:33:07;100388.38;;;21.34;83.67
24486;BME280;13449;49.374;8.584;2023-06-22T05:35:34;100390.94;;;21.42;83.89
24486;BME280;13449;49.374;8.584;2023-06-22T05:38:00;100391.72;;;21.57;85.60
24486;BME280;13449;49.374;8.584;2023-06-22T05:40:27;100389.94;;;21.64;84.77
24486;BME280;13449;49.374;8.584;2023-06-22T05:42:54;100403.84;;;21.74;84.96
24486;BME280;13449;49.374;8.584;2023-06-22T05:45:20;100397.09;;;21.78;85.00
24486;BME280;13449;49.374;8.584;2023-06-22T05:47:48;100370.25;;;22.00;78.28
24486;BME280;13449;49.374;8.584;2023-06-22T05:50:17;100376.72;;;22.05;79.31
24486;BME280;13449;49.374;8.584;2023-06-22T05:52:43;100393.75;;;22.19;80.22
24486;BME280;13449;49.374;8.584;2023-06-22T05:55:12;100376.09;;;22.31;76.92
24486;BME280;13449;49.374;8.584;2023-06-22T05:57:39;100378.25;;;22.42;78.54
24486;BME280;13449;49.374;8.584;2023-06-22T06:00:06;100374.75;;;22.49;78.18
24486;BME280;13449;49.374;8.584;2023-06-22T06:02:37;100361.81;;;22.59;75.13
24486;BME280;13449;49.374;8.584;2023-06-22T06:05:13;100368.84;;;22.60;76.42
24486;BME280;13449;49.374;8.584;2023-06-22T06:07:44;100351.19;;;22.79;73.73
24486;BME280;13449;49.374;8.584;2023-06-22T06:10:12;100361.09;;;22.78;74.25
24486;BME280;13449;49.374;8.584;2023-06-22T06:12:38;100353.13;;;22.91;70.75
24486;BME280;13449;49.374;8.584;2023-06-22T06:15:05;100369.88;;;23.00;72.72
24486;BME280;13449;49.374;8.584;2023-06-22T06:17:45;100377.81;;;23.15;71.46
24486;BME280;13449;49.374;8.584;2023-06-22T06:20:12;100365.81;;;23.17;74.27
24486;BME280;13449;49.374;8.584;2023-06-22T06:22:41;100350.97;;;23.28;72.38
24486;BME280;13449;49.374;8.584;2023-06-22T06:25:09;100334.84;;;23.28;71.72
24486;BME280;13449;49.374;8.584;2023-06-22T06:27:35;100328.25;;;23.37;70.75
24486;BME280;13449;49.374;8.584;2023-06-22T06:30:05;100336.97;;;23.52;69.70
24486;BME280;13449;49.374;8.584;2023-06-22T06:32:32;100326.25;;;23.66;68.45
24486;BME280;13449;49.374;8.584;2023-06-22T06:35:01;100358.94;;;23.76;70.89
24486;BME280;13449;49.374;8.584;2023-06-22T06:37:30;100342.41;;;23.85;68.61
24486;BME280;13449;49.374;8.584;2023-06-22T06:39:56;100338.66;;;23.93;66.92
24486;BME280;13449;49.374;8.584;2023-06-22T06:42:22;100350.25;;;24.00;70.82
24486;BME280;13449;49.374;8.584;2023-06-22T06:44:50;100336.59;;;24.08;68.52
24486;BME280;13449;49.374;8.584;2023-06-22T06:47:20;100328.09;;;24.18;67.30
24486;BME280;13449;49.374;8.584;2023-06-22T06:49:46;100327.47;;;24.23;66.11
24486;BME280;13449;49.374;8.584;2023-06-22T06:52:15;100313.16;;;24.29;64.85
24486;BME280;13449;49.374;8.584;2023-06-22T06:54:41;100319.19;;;24.37;66.26
24486;BME280;13449;49.374;8.584;2023-06-22T06:57:10;100321.25;;;24.35;65.29
24486;BME280;13449;49.374;8.584;2023-06-22T06:59:39;100310.03;;;24.45;64.96
24486;BME280;13449;49.374;8.584;2023-06-22T07:02:06;100315.00;;;24.48;64.95
24486;BME280;13449;49.374;8.584;2023-06-22T07:04:32;100311.47;;;24.54;65.53
24486;BME280;13449;49.374;8.584;2023-06-22T07:07:01;100310.22;;;24.57;64.50
24486;BME280;13449;49.374;8.584;2023-06-22T07:09:28;100299.22;;;24.58;63.20
24486;BME280;13449;49.374;8.584;2023-06-22T07:11:54;100309.97;;;24.65;63.75
24486;BME280;13449;49.374;8.584;2023-06-22T07:14:23;100307.69;;;24.68;64.21
24486;BME280;13449;49.374;8.584;2023-06-22T07:16:52;100296.41;;;24.85;63.71
24486;BME280;13449;49.374;8.584;2023-06-22T07:19:25;100299.94;;;24.85;63.02
24486;BME280;13449;49.374;8.584;2023-06-22T07:21:53;100297.84;;;24.94;63.51
24486;BME280;13449;49.374;8.584;2023-06-22T07:24:23;100275.44;;;25.00;63.24
24486;BME280;13449;49.374;8.584;2023-06-22T07:26:50;100283.53;;;25.00;62.47
24486;BME280;13449;49.374;8.584;2023-06-22T07:29:18;100284.13;;;25.02;62.66
24486;BME280;13449;49.374;8.584;2023-06-22T07:31:46;100280.31;;;25.16;61.76
24486;BME280;13449;49.374;8.584;2023-06-22T07:34:15;100295.63;;;25.22;62.54
24486;BME280;13449;49.374;8.584;2023-06-22T07:36:43;100281.31;;;25.22;61.78
24486;BME280;13449;49.374;8.584;2023-06-22T07:39:10;100272.38;;;25.28;62.74
24486;BME280;13449;49.374;8.584;2023-06-22T07:41:36;100274.19;;;25.34;61.17
24486;BME280;13449;49.374;8.584;2023-06-22T07:44:03;100309.22;;;25.34;61.12
24486;BME280;13449;49.374;8.584;2023-06-22T07:46:30;100303.38;;;25.44;61.63
24486;BME280;13449;49.374;8.584;2023-06-22T07:48:56;100285.22;;;25.57;62.26
24486;BME280;13449;49.374;8.584;2023-06-22T07:51:26;100290.72;;;25.69;59.89
24486;BME280;13449;49.374;8.584;2023-06-22T07:53:55;100315.06;;;25.87;63.12
24486;BME280;13449;49.374;8.584;2023-06-22T07:56:23;100297.88;;;26.07;60.68
24486;BME280;13449;49.374;8.584;2023-06-22T07:58:54;100281.84;;;26.12;58.17
24486;BME280;13449;49.374;8.584;2023-06-22T08:01:21;100273.47;;;26.20;59.25
24486;BME280;13449;49.374;8.584;2023-06-22T08:03:48;100273.06;;;26.35;60.39
24486;BME280;13449;49.374;8.584;2023-06-22T08:06:15;100267.06;;;26.51;58.98
24486;BME280;13449;49.374;8.584;2023-06-22T08:08:42;100267.00;;;26.58;58.70
24486;BME280;13449;49.374;8.584;2023-06-22T08:11:09;100269.84;;;26.63;58.02
24486;BME280;13449;49.374;8.584;2023-06-22T08:13:35;100260.72;;;26.45;56.10
24486;BME280;13449;49.374;8.584;2023-06-22T08:16:05;100259.66;;;26.46;56.32
24486;BME280;13449;49.374;8.584;2023-06-22T08:18:31;100266.69;;;26.66;56.20
24486;BME280;13449;49.374;8.584;2023-06-22T08:20:58;100278.84;;;26.75;58.56
24486;BME280;13449;49.374;8.584;2023-06-22T08:23:24;100268.44;;;26.90;56.58
24486;BME280;13449;49.374;8.584;2023-06-22T08:25:51;100248.59;;;26.84;55.89
24486;BME280;13449;49.374;8.584;2023-06-22T08:28:17;100258.22;;;26.92;56.65
24486;BME280;13449;49.374;8.584;2023-06-22T08:30:44;100271.13;;;27.08;57.65
24486;BME280;13449;49.374;8.584;2023-06-22T08:33:11;100255.66;;;27.15;55.36
24486;BME280;13449;49.374;8.584;2023-06-22T08:35:45;100257.06;;;27.30;56.90
24486;BME280;13449;49.374;8.584;2023-06-22T08:38:11;100250.63;;;27.42;56.22
24486;BME280;13449;49.374;8.584;2023-06-22T08:40:41;100248.66;;;27.50;55.43
24486;BME280;13449;49.374;8.584;2023-06-22T08:43:08;100242.63;;;27.36;52.54
24486;BME280;13449;49.374;8.584;2023-06-22T08:45:37;100235.88;;;27.68;53.92
24486;BME280;13449;49.374;8.584;2023-06-22T08:48:06;100252.81;;;27.87;55.34
24486;BME280;13449;49.374;8.584;2023-06-22T08:50:33;100244.44;;;27.89;53.95
24486;BME280;13449;49.374;8.584;2023-06-22T08:52:59;100258.22;;;27.99;56.69
24486;BME280;13449;49.374;8.584;2023-06-22T08:55:28;100241.16;;;28.10;52.33
24486;BME280;13449;49.374;8.584;2023-06-22T08:57:55;100250.19;;;28.16;52.24
24486;BME280;13449;49.374;8.584;2023-06-22T09:00:24;100261.94;;;28.21;54.87
24486;BME280;13449;49.374;8.584;2023-06-22T09:02:50;100270.75;;;28.52;53.43
24486;BME280;13449;49.374;8.584;2023-06-22T09:05:20;100266.41;;;28.51;51.11
24486;BME280;13449;49.374;8.584;2023-06-22T09:07:48;100285.19;;;28.29;52.80
24486;BME280;13449;49.374;8.584;2023-06-22T09:10:14;100285.84;;;28.59;53.38
24486;BME280;13449;49.374;8.584;2023-06-22T09:12:41;100285.63;;;28.38;53.58
24486;BME280;13449;49.374;8.584;2023-06-22T09:15:08;100280.03;;;28.56;55.58
24486;BME280;13449;49.374;8.584;2023-06-22T09:17:41;100250.06;;;28.46;51.16
24486;BME280;13449;49.374;8.584;2023-06-22T09:20:11;100239.97;;;28.29;51.32
24486;BME280;13449;49.374;8.584;2023-06-22T09:22:38;100238.06;;;28.30;52.35
24486;BME280;13449;49.374;8.584;2023-06-22T09:25:09;100226.31;;;28.13;51.91
24486;BME280;13449;49.374;8.584;2023-06-22T09:27:38;100223.22;;;28.32;54.37
24486;BME280;13449;49.374;8.584;2023-06-22T09:30:05;100212.63;;;28.08;52.31
24486;BME280;13449;49.374;8.584;2023-06-22T09:32:32;100211.50;;;27.92;53.22
24486;BME280;13449;49.374;8.584;2023-06-22T09:35:03;100205.50;;;27.90;53.21
24486;BME280;13449;49.374;8.584;2023-06-22T09:37:32;100217.97;;;27.91;57.24
24486;BME280;13449;49.374;8.584;2023-06-22T09:39:58;100206.72;;;28.22;55.33
24486;BME280;13449;49.374;8.584;2023-06-22T09:42:25;100197.09;;;28.55;53.47
24486;BME280;13449;49.374;8.584;2023-06-22T09:44:52;100209.75;;;28.78;55.02
24486;BME280;13449;49.374;8.584;2023-06-22T09:47:18;100189.69;;;28.90;53.73
24486;BME280;13449;49.374;8.584;2023-06-22T09:49:45;100167.69;;;29.04;51.15
24486;BME280;13449;49.374;8.584;2023-06-22T09:52:16;100194.03;;;28.91;52.40
24486;BME280;13449;49.374;8.584;2023-06-22T09:54:43;100161.84;;;28.83;50.39
24486;BME280;13449;49.374;8.584;2023-06-22T09:57:11;100147.72;;;28.81;49.97
24486;BME280;13449;49.374;8.584;2023-06-22T09:59:41;100166.59;;;29.05;51.12
24486;BME280;13449;49.374;8.584;2023-06-22T10:02:16;100173.44;;;29.24;51.07
24486;BME280;13449;49.374;8.584;2023-06-22T10:04:43;100172.84;;;29.22;49.54
24486;BME280;13449;49.374;8.584;2023-06-22T10:07:10;100163.72;;;28.95;50.62
24486;BME280;13449;49.374;8.584;2023-06-22T10:09:37;100149.59;;;28.64;50.86
24486;BME280;13449;49.374;8.584;2023-06-22T10:12:07;100158.38;;;28.71;52.46
24486;BME280;13449;49.374;8.584;2023-06-22T10:14:35;100138.25;;;28.67;51.37
24486;BME280;13449;49.374;8.584;2023-06-22T10:17:02;100143.84;;;28.60;51.78
24486;BME280;13449;49.374;8.584;2023-06-22T10:19:28;100140.31;;;28.60;52.47
24486;BME280;13449;49.374;8.584;2023-06-22T10:21:57;100138.81;;;28.52;52.33
24486;BME280;13449;49.374;8.584;2023-06-22T10:24:27;100129.44;;;28.43;51.42
24486;BME280;13449;49.374;8.584;2023-06-22T10:26:53;100133.06;;;28.49;52.87
24486;BME280;13449;49.374;8.584;2023-06-22T10:29:20;100133.06;;;28.49;53.30
24486;BME280;13449;49.374;8.584;2023-06-22T10:31:47;100121.97;;;28.50;52.00
24486;BME280;13449;49.374;8.584;2023-06-22T10:34:16;100120.88;;;28.34;51.52
24486;BME280;13449;49.374;8.584;2023-06-22T10:36:44;100108.38;;;28.33;51.09
24486;BME280;13449;49.374;8.584;2023-06-22T10:39:14;100101.81;;;28.29;51.53
24486;BME280;13449;49.374;8.584;2023-06-22T10:41:41;100131.13;;;28.32;53.53
24486;BME280;13449;49.374;8.584;2023-06-22T10:44:07;100118.13;;;28.46;51.18
24486;BME280;13449;49.374;8.584;2023-06-22T10:46:34;100111.56;;;28.59;52.07
24486;BME280;13449;49.374;8.584;2023-06-22T10:49:03;100100.44;;;28.72;50.53
24486;BME280;13449;49.374;8.584;2023-06-22T10:51:30;100101.59;;;29.10;51.70
24486;BME280;13449;49.374;8.584;2023-06-22T10:53:57;100098.44;;;29.51;50.82
24486;BME280;13449;49.374;8.584;2023-06-22T10:56:24;100095.72;;;29.73;49.21
24486;BME280;13449;49.374;8.584;2023-06-22T10:58:50;100082.59;;;29.87;47.91
24486;BME280;13449;49.374;8.584;2023-06-22T11:01:17;100089.63;;;29.83;48.22
24486;BME280;13449;49.374;8.584;2023-06-22T11:03:51;100071.03;;;29.75;47.31
24486;BME280;13449;49.374;8.584;2023-06-22T11:06:18;100071.28;;;29.95;46.84
24486;BME280;13449;49.374;8.584;2023-06-22T11:08:44;100076.72;;;29.73;47.85
24486;BME280;13449;49.374;8.584;2023-06-22T11:11:30;100064.28;;;29.77;46.80
24486;BME280;13449;49.374;8.584;2023-06-22T11:13:58;100062.94;;;29.80;46.68
24486;BME280;13449;49.374;8.584;2023-06-22T11:16:24;100066.59;;;30.13;48.39
24486;BME280;13449;49.374;8.584;2023-06-22T11:18:51;100069.69;;;30.21;50.93
24486;BME280;13449;49.374;8.584;2023-06-22T11:21:18;100067.94;;;30.37;48.62
24486;BME280;13449;49.374;8.584;2023-06-22T11:23:45;100065.69;;;30.29;46.31
24486;BME280;13449;49.374;8.584;2023-06-22T11:26:11;100077.97;;;30.09;48.11
24486;BME280;13449;49.374;8.584;2023-06-22T11:28:38;100077.28;;;29.97;48.77
24486;BME280;13449;49.374;8.584;2023-06-22T11:31:04;100064.09;;;29.84;47.29
24486;BME280;13449;49.374;8.584;2023-06-22T11:33:51;100065.59;;;29.97;46.90
24486;BME280;13449;49.374;8.584;2023-06-22T11:36:18;100063.31;;;30.10;46.94
24486;BME280;13449;49.374;8.584;2023-06-22T11:38:47;100061.59;;;30.26;47.09
24486;BME280;13449;49.374;8.584;2023-06-22T11:41:16;100076.66;;;30.39;49.15
24486;BME280;13449;49.374;8.584;2023-06-22T11:43:44;100057.19;;;30.47;46.08
24486;BME280;13449;49.374;8.584;2023-06-22T11:46:14;100063.63;;;30.41;47.32
24486;BME280;13449;49.374;8.584;2023-06-22T11:48:40;100060.75;;;30.26;46.75
24486;BME280;13449;49.374;8.584;2023-06-22T11:51:08;100074.91;;;30.28;50.14
24486;BME280;13449;49.374;8.584;2023-06-22T11:53:37;100056.31;;;30.15;48.35
24486;BME280;13449;49.374;8.584;2023-06-22T11:56:06;100053.66;;;30.20;46.58
24486;BME280;13449;49.374;8.584;2023-06-22T11:58:34;100053.94;;;30.23;49.59
24486;BME280;13449;49.374;8.584;2023-06-22T12:01:00;100053.59;;;30.15;50.03
24486;BME280;13449;49.374;8.584;2023-06-22T12:03:29;100048.53;;;30.01;45.61
24486;BME280;13449;49.374;8.584;2023-06-22T12:06:00;100047.41;;;29.97;45.78
24486;BME280;13449;49.374;8.584;2023-06-22T12:08:27;100055.31;;;29.99;47.11
24486;BME280;13449;49.374;8.584;2023-06-22T12:10:53;100067.69;;;30.11;49.63
24486;BME280;13449;49.374;8.584;2023-06-22T12:13:22;100059.03;;;30.15;47.34
24486;BME280;13449;49.374;8.584;2023-06-22T12:15:49;100045.53;;;30.25;46.03
24486;BME280;13449;49.374;8.584;2023-06-22T12:18:18;100050.53;;;30.33;45.99
24486;BME280;13449;49.374;8.584;2023-06-22T12:20:47;100060.25;;;30.29;46.23
24486;BME280;13449;49.374;8.584;2023-06-22T12:23:14;100054.91;;;30.39;46.29
24486;BME280;13449;49.374;8.584;2023-06-22T12:25:41;100054.69;;;30.73;45.12
24486;BME280;13449;49.374;8.584;2023-06-22T12:28:07;100061.41;;;30.97;46.00
24486;BME280;13449;49.374;8.584;2023-06-22T12:30:34;100056.91;;;31.13;45.95
24486;BME280;13449;49.374;8.584;2023-06-22T12:33:00;100044.50;;;31.27;45.32
24486;BME280;13449;49.374;8.584;2023-06-22T12:35:28;100056.81;;;31.45;45.37
24486;BME280;13449;49.374;8.584;2023-06-22T12:37:57;100060.91;;;31.47;46.41
24486;BME280;13449;49.374;8.584;2023-06-22T12:40:26;100051.38;;;31.45;44.83
24486;BME280;13449;49.374;8.584;2023-06-22T12:42:52;100069.44;;;31.66;47.55
24486;BME280;13449;49.374;8.584;2023-06-22T12:45:19;100068.50;;;31.93;48.28
24486;BME280;13449;49.374;8.584;2023-06-22T12:47:47;100054.31;;;31.96;44.69
24486;BME280;13449;49.374;8.584;2023-06-22T12:50:16;100049.91;;;31.74;44.27
24486;BME280;13449;49.374;8.584;2023-06-22T12:52:43;100054.94;;;31.55;44.63
24486;BME280;13449;49.374;8.584;2023-06-22T12:55:09;100051.84;;;31.32;44.11
24486;BME280;13449;49.374;8.584;2023-06-22T12:57:38;100066.97;;;31.12;44.50